Lyell McEwin Hospital Helipad

AU-0181 · South Australia, 澳大利亚

METAR AU-0181 · Lyell McEwin Hospital Helipad

23 六月 16:00 LT
33m
使用的METAR站距离机场25 km。
罗盘
风向 的 风向 340° 直升机
风: 14 kt, 4 beaufort
0 ft 6.000 12.000 18.000 24.000 30.000
Cloud Cloud
FEW 4.000
Cloud Cloud Cloud Cloud Cloud Cloud
BKN 23.000
METAR YPAD 230630Z 34014KT 9999 FEW040 BKN230 14/04 Q1020 RF00.0/000.0

METAR Lyell McEwin Hospital Helipad - AU-0181

Lyell McEwin Hospital Helipad是,澳大利亚中的直升机场。 该机场位于纬度-34,74885和经度138,66584。 这个机场没有ICAO代码,我们使用AU-0181作为参考。 机场在Melbourne FIR中。

该航空气象观测是针对阿德萊德機場在2024年6月23日 16:00, 当地时间进行的。

机场观察

风向为340°,速度为14 kt。

可见度为10 km 或者更多。

有几云在4.000 ft的高度 和 碎云在23.000 ft的高度。 破损或更高的上限为23.000 ft。

温度和风寒是14 °C。 露点为4 °C,相对湿度为51%。 海平面上的气压为1020 hPa (QNH)。

白天

今天,太阳从07:22升起,在17:12降落。 这适用于Lyell McEwin Hospital Helipad,世界夏令时可能有所不同。 当地时间与世界标准时间之间的时差为+9 小时 30 分钟。 夏令时目前正在进行中。

公司介绍

我们没有关于这个机场的公司信息。

体会

到Vliegles.nl去找飞行课程,跳伞和其他飞行体验。 浏览页面,了解Lyell McEwin Hospital Helipad附近所有可用的活动。 你也可以使用搜索功能来寻找你所在地附近的特定飞行课程、跳伞或其他飞行体验。

乌云

4.000 ft FEW 几云
23.000 ft BKN 碎云

温度 & 天气

温度 14 °C
露点 4 °C
相对湿度 51%
Kp-index 1 (0-9)

白天

日出
07:23
中午
12:18
日落
17:12 (39m)

小工具

你想在你的网站上有一个关于Lyell McEwin Hospital Helipad的当前航空天气(METAR)的小部件吗?

显示HTML代码
报告变更